sensor_id;sensor_type;location;lat;lon;timestamp;temperature;humidity
52523;DHT22;39648;53.416;6.728;2022-07-05T00:00:36;24.60;55.10
52523;DHT22;39648;53.416;6.728;2022-07-05T00:03:01;24.60;55.10
52523;DHT22;39648;53.416;6.728;2022-07-05T00:05:27;24.60;55.10
52523;DHT22;39648;53.416;6.728;2022-07-05T00:07:53;24.60;55.20
52523;DHT22;39648;53.416;6.728;2022-07-05T00:10:18;24.60;55.00
52523;DHT22;39648;53.416;6.728;2022-07-05T00:12:44;24.60;54.80
52523;DHT22;39648;53.416;6.728;2022-07-05T00:15:10;24.60;55.10
52523;DHT22;39648;53.416;6.728;2022-07-05T00:17:36;24.50;54.90
52523;DHT22;39648;53.416;6.728;2022-07-05T00:20:02;24.50;54.60
52523;DHT22;39648;53.416;6.728;2022-07-05T00:22:28;24.50;54.50
52523;DHT22;39648;53.416;6.728;2022-07-05T00:24:54;24.50;54.70
52523;DHT22;39648;53.416;6.728;2022-07-05T00:27:19;24.50;54.80
52523;DHT22;39648;53.416;6.728;2022-07-05T00:29:45;24.50;54.60
52523;DHT22;39648;53.416;6.728;2022-07-05T00:32:11;24.40;54.70
52523;DHT22;39648;53.416;6.728;2022-07-05T00:34:36;24.50;54.70
52523;DHT22;39648;53.416;6.728;2022-07-05T00:37:02;24.50;54.50
52523;DHT22;39648;53.416;6.728;2022-07-05T00:39:28;24.50;54.50
52523;DHT22;39648;53.416;6.728;2022-07-05T00:41:54;24.90;54.60
52523;DHT22;39648;53.416;6.728;2022-07-05T00:44:27;24.40;54.20
52523;DHT22;39648;53.416;6.728;2022-07-05T00:46:54;24.40;54.30
52523;DHT22;39648;53.416;6.728;2022-07-05T00:49:19;24.40;54.30
52523;DHT22;39648;53.416;6.728;2022-07-05T00:51:45;24.40;54.10
52523;DHT22;39648;53.416;6.728;2022-07-05T00:54:10;24.40;54.30
52523;DHT22;39648;53.416;6.728;2022-07-05T00:56:36;24.40;54.40
52523;DHT22;39648;53.416;6.728;2022-07-05T00:59:02;24.40;54.30
52523;DHT22;39648;53.416;6.728;2022-07-05T01:01:28;24.40;54.50
52523;DHT22;39648;53.416;6.728;2022-07-05T01:03:53;24.40;54.50
52523;DHT22;39648;53.416;6.728;2022-07-05T01:06:19;24.30;54.50
52523;DHT22;39648;53.416;6.728;2022-07-05T01:08:44;24.30;54.50
52523;DHT22;39648;53.416;6.728;2022-07-05T01:11:11;24.30;54.60
52523;DHT22;39648;53.416;6.728;2022-07-05T01:13:37;24.30;54.50
52523;DHT22;39648;53.416;6.728;2022-07-05T01:16:03;24.30;54.40
52523;DHT22;39648;53.416;6.728;2022-07-05T01:18:29;24.30;54.20
52523;DHT22;39648;53.416;6.728;2022-07-05T01:20:57;24.30;54.30
52523;DHT22;39648;53.416;6.728;2022-07-05T01:23:22;24.30;54.10
52523;DHT22;39648;53.416;6.728;2022-07-05T01:25:48;24.30;53.90
52523;DHT22;39648;53.416;6.728;2022-07-05T01:28:14;24.30;53.60
52523;DHT22;39648;53.416;6.728;2022-07-05T01:30:40;24.30;53.80
52523;DHT22;39648;53.416;6.728;2022-07-05T01:33:07;24.20;54.10
52523;DHT22;39648;53.416;6.728;2022-07-05T01:35:33;24.20;54.10
52523;DHT22;39648;53.416;6.728;2022-07-05T01:37:59;24.20;54.20
52523;DHT22;39648;53.416;6.728;2022-07-05T01:40:24;24.20;54.10
52523;DHT22;39648;53.416;6.728;2022-07-05T01:42:50;24.20;54.30
52523;DHT22;39648;53.416;6.728;2022-07-05T01:45:16;24.20;54.20
52523;DHT22;39648;53.416;6.728;2022-07-05T01:48:02;24.20;54.10
52523;DHT22;39648;53.416;6.728;2022-07-05T01:50:31;24.20;54.00
52523;DHT22;39648;53.416;6.728;2022-07-05T01:52:58;24.20;54.20
52523;DHT22;39648;53.416;6.728;2022-07-05T01:55:26;24.10;53.90
52523;DHT22;39648;53.416;6.728;2022-07-05T01:57:52;24.10;53.90
52523;DHT22;39648;53.416;6.728;2022-07-05T02:00:18;24.10;54.00
52523;DHT22;39648;53.416;6.728;2022-07-05T02:02:44;24.10;53.80
52523;DHT22;39648;53.416;6.728;2022-07-05T02:05:12;24.10;53.80
52523;DHT22;39648;53.416;6.728;2022-07-05T02:07:47;24.10;53.90
52523;DHT22;39648;53.416;6.728;2022-07-05T02:10:13;24.10;53.90
52523;DHT22;39648;53.416;6.728;2022-07-05T02:12:39;24.10;53.70
52523;DHT22;39648;53.416;6.728;2022-07-05T02:15:04;24.10;53.60
52523;DHT22;39648;53.416;6.728;2022-07-05T02:17:30;24.10;53.70
52523;DHT22;39648;53.416;6.728;2022-07-05T02:19:56;24.10;53.80
52523;DHT22;39648;53.416;6.728;2022-07-05T02:22:23;24.00;53.60
52523;DHT22;39648;53.416;6.728;2022-07-05T02:24:49;24.00;53.50
52523;DHT22;39648;53.416;6.728;2022-07-05T02:27:14;24.00;53.30
52523;DHT22;39648;53.416;6.728;2022-07-05T02:29:40;24.00;53.20
52523;DHT22;39648;53.416;6.728;2022-07-05T02:32:05;24.00;53.30
52523;DHT22;39648;53.416;6.728;2022-07-05T02:34:31;24.00;53.40
52523;DHT22;39648;53.416;6.728;2022-07-05T02:36:57;23.90;53.30
52523;DHT22;39648;53.416;6.728;2022-07-05T02:39:23;24.00;53.90
52523;DHT22;39648;53.416;6.728;2022-07-05T02:41:48;23.90;53.70
52523;DHT22;39648;53.416;6.728;2022-07-05T02:44:14;23.90;53.80
52523;DHT22;39648;53.416;6.728;2022-07-05T02:46:40;23.90;53.90
52523;DHT22;39648;53.416;6.728;2022-07-05T02:49:05;23.90;53.90
52523;DHT22;39648;53.416;6.728;2022-07-05T02:51:31;23.90;53.70
52523;DHT22;39648;53.416;6.728;2022-07-05T02:53:57;23.90;53.90
52523;DHT22;39648;53.416;6.728;2022-07-05T02:56:22;23.90;53.90
52523;DHT22;39648;53.416;6.728;2022-07-05T02:58:49;23.90;53.80
52523;DHT22;39648;53.416;6.728;2022-07-05T03:01:15;23.90;54.00
52523;DHT22;39648;53.416;6.728;2022-07-05T03:03:40;23.90;54.00
52523;DHT22;39648;53.416;6.728;2022-07-05T03:06:06;23.90;54.10
52523;DHT22;39648;53.416;6.728;2022-07-05T03:08:32;23.90;54.10
52523;DHT22;39648;53.416;6.728;2022-07-05T03:10:57;23.90;54.10
52523;DHT22;39648;53.416;6.728;2022-07-05T03:13:23;23.90;54.10
52523;DHT22;39648;53.416;6.728;2022-07-05T03:15:49;23.90;54.00
52523;DHT22;39648;53.416;6.728;2022-07-05T03:18:15;23.90;54.10
52523;DHT22;39648;53.416;6.728;2022-07-05T03:20:41;23.80;54.20
52523;DHT22;39648;53.416;6.728;2022-07-05T03:23:06;23.80;54.30
52523;DHT22;39648;53.416;6.728;2022-07-05T03:25:32;23.80;54.30
52523;DHT22;39648;53.416;6.728;2022-07-05T03:27:58;23.80;54.40
52523;DHT22;39648;53.416;6.728;2022-07-05T03:30:24;23.80;54.50
52523;DHT22;39648;53.416;6.728;2022-07-05T03:32:49;23.80;54.50
52523;DHT22;39648;53.416;6.728;2022-07-05T03:35:16;23.80;54.50
52523;DHT22;39648;53.416;6.728;2022-07-05T03:37:41;23.80;54.70
52523;DHT22;39648;53.416;6.728;2022-07-05T03:40:07;23.80;54.60
52523;DHT22;39648;53.416;6.728;2022-07-05T03:42:33;23.80;54.70
52523;DHT22;39648;53.416;6.728;2022-07-05T03:45:00;23.80;54.70
52523;DHT22;39648;53.416;6.728;2022-07-05T03:47:26;23.70;54.70
52523;DHT22;39648;53.416;6.728;2022-07-05T03:49:53;23.80;54.70
52523;DHT22;39648;53.416;6.728;2022-07-05T03:52:19;23.70;54.50
52523;DHT22;39648;53.416;6.728;2022-07-05T03:54:44;23.70;54.40
52523;DHT22;39648;53.416;6.728;2022-07-05T03:57:11;23.70;54.30
52523;DHT22;39648;53.416;6.728;2022-07-05T03:59:37;23.70;54.30
52523;DHT22;39648;53.416;6.728;2022-07-05T04:02:03;23.70;54.20
52523;DHT22;39648;53.416;6.728;2022-07-05T04:04:28;23.70;54.20
52523;DHT22;39648;53.416;6.728;2022-07-05T04:06:54;23.70;54.50
52523;DHT22;39648;53.416;6.728;2022-07-05T04:09:19;23.70;54.50
52523;DHT22;39648;53.416;6.728;2022-07-05T04:11:45;23.70;54.50
52523;DHT22;39648;53.416;6.728;2022-07-05T04:14:11;23.70;54.60
52523;DHT22;39648;53.416;6.728;2022-07-05T04:16:37;23.70;54.80
52523;DHT22;39648;53.416;6.728;2022-07-05T04:19:02;23.70;54.80
52523;DHT22;39648;53.416;6.728;2022-07-05T04:21:28;23.70;54.90
52523;DHT22;39648;53.416;6.728;2022-07-05T04:23:54;23.70;55.00
52523;DHT22;39648;53.416;6.728;2022-07-05T04:26:19;23.70;54.90
52523;DHT22;39648;53.416;6.728;2022-07-05T04:28:45;23.70;55.00
52523;DHT22;39648;53.416;6.728;2022-07-05T04:31:10;23.60;55.60
52523;DHT22;39648;53.416;6.728;2022-07-05T04:33:36;23.40;55.30
52523;DHT22;39648;53.416;6.728;2022-07-05T04:36:02;23.70;55.60
52523;DHT22;39648;53.416;6.728;2022-07-05T04:38:27;23.70;55.90
52523;DHT22;39648;53.416;6.728;2022-07-05T04:40:54;23.70;55.70
52523;DHT22;39648;53.416;6.728;2022-07-05T04:43:20;23.70;55.80
52523;DHT22;39648;53.416;6.728;2022-07-05T04:45:46;23.70;56.00
52523;DHT22;39648;53.416;6.728;2022-07-05T04:48:12;23.70;56.30
52523;DHT22;39648;53.416;6.728;2022-07-05T04:50:38;23.80;56.70
52523;DHT22;39648;53.416;6.728;2022-07-05T04:53:03;23.70;56.30
52523;DHT22;39648;53.416;6.728;2022-07-05T04:55:29;23.70;55.50
52523;DHT22;39648;53.416;6.728;2022-07-05T04:57:55;23.70;55.30
52523;DHT22;39648;53.416;6.728;2022-07-05T05:00:21;23.70;55.40
52523;DHT22;39648;53.416;6.728;2022-07-05T05:02:47;23.70;55.40
52523;DHT22;39648;53.416;6.728;2022-07-05T05:05:12;23.70;55.70
52523;DHT22;39648;53.416;6.728;2022-07-05T05:07:42;23.70;55.70
52523;DHT22;39648;53.416;6.728;2022-07-05T05:10:08;23.70;55.60
52523;DHT22;39648;53.416;6.728;2022-07-05T05:12:33;23.70;55.60
52523;DHT22;39648;53.416;6.728;2022-07-05T05:14:59;23.70;55.70
52523;DHT22;39648;53.416;6.728;2022-07-05T05:17:25;23.70;55.70
52523;DHT22;39648;53.416;6.728;2022-07-05T05:19:51;23.60;55.90
52523;DHT22;39648;53.416;6.728;2022-07-05T05:22:17;23.60;55.80
52523;DHT22;39648;53.416;6.728;2022-07-05T05:24:43;23.60;56.20
52523;DHT22;39648;53.416;6.728;2022-07-05T05:27:08;23.70;56.00
52523;DHT22;39648;53.416;6.728;2022-07-05T05:29:34;23.60;56.30
52523;DHT22;39648;53.416;6.728;2022-07-05T05:32:00;23.60;56.00
52523;DHT22;39648;53.416;6.728;2022-07-05T05:34:25;23.60;56.00
52523;DHT22;39648;53.416;6.728;2022-07-05T05:36:51;23.60;56.00
52523;DHT22;39648;53.416;6.728;2022-07-05T05:39:16;23.60;56.10
52523;DHT22;39648;53.416;6.728;2022-07-05T05:41:42;23.60;56.10
52523;DHT22;39648;53.416;6.728;2022-07-05T05:44:08;23.50;56.00
52523;DHT22;39648;53.416;6.728;2022-07-05T05:46:35;23.50;56.00
52523;DHT22;39648;53.416;6.728;2022-07-05T05:49:00;23.50;56.00
52523;DHT22;39648;53.416;6.728;2022-07-05T05:51:26;23.50;56.10
52523;DHT22;39648;53.416;6.728;2022-07-05T05:53:52;23.50;56.10
52523;DHT22;39648;53.416;6.728;2022-07-05T05:56:17;23.40;56.10
52523;DHT22;39648;53.416;6.728;2022-07-05T05:58:43;23.40;56.10
52523;DHT22;39648;53.416;6.728;2022-07-05T06:01:09;23.40;56.20
52523;DHT22;39648;53.416;6.728;2022-07-05T06:03:34;23.40;56.30
52523;DHT22;39648;53.416;6.728;2022-07-05T06:06:00;23.40;56.30
52523;DHT22;39648;53.416;6.728;2022-07-05T06:08:26;23.40;56.40
52523;DHT22;39648;53.416;6.728;2022-07-05T06:10:51;23.40;56.40
52523;DHT22;39648;53.416;6.728;2022-07-05T06:13:17;23.40;56.40
52523;DHT22;39648;53.416;6.728;2022-07-05T06:15:43;23.40;56.50
52523;DHT22;39648;53.416;6.728;2022-07-05T06:18:09;23.40;56.60
52523;DHT22;39648;53.416;6.728;2022-07-05T06:20:36;23.30;56.50
52523;DHT22;39648;53.416;6.728;2022-07-05T06:23:03;23.30;56.60
52523;DHT22;39648;53.416;6.728;2022-07-05T06:25:29;23.40;56.80
52523;DHT22;39648;53.416;6.728;2022-07-05T06:27:55;23.30;56.70
52523;DHT22;39648;53.416;6.728;2022-07-05T06:30:22;23.30;56.80
52523;DHT22;39648;53.416;6.728;2022-07-05T06:32:48;23.30;56.80
52523;DHT22;39648;53.416;6.728;2022-07-05T06:35:14;23.30;56.80
52523;DHT22;39648;53.416;6.728;2022-07-05T06:37:41;23.30;56.90
52523;DHT22;39648;53.416;6.728;2022-07-05T06:40:07;23.30;56.90
52523;DHT22;39648;53.416;6.728;2022-07-05T06:42:34;23.30;57.00
52523;DHT22;39648;53.416;6.728;2022-07-05T06:44:59;23.30;57.00
52523;DHT22;39648;53.416;6.728;2022-07-05T06:47:25;23.30;57.10
52523;DHT22;39648;53.416;6.728;2022-07-05T06:49:51;23.40;57.20
52523;DHT22;39648;53.416;6.728;2022-07-05T06:52:16;23.30;57.10
52523;DHT22;39648;53.416;6.728;2022-07-05T06:54:42;23.30;57.20
52523;DHT22;39648;53.416;6.728;2022-07-05T06:57:08;23.30;57.20
52523;DHT22;39648;53.416;6.728;2022-07-05T06:59:34;23.30;57.30
52523;DHT22;39648;53.416;6.728;2022-07-05T07:01:59;23.30;57.30
52523;DHT22;39648;53.416;6.728;2022-07-05T07:04:25;23.30;57.40
52523;DHT22;39648;53.416;6.728;2022-07-05T07:06:51;23.30;57.40
52523;DHT22;39648;53.416;6.728;2022-07-05T07:09:16;23.30;57.40
52523;DHT22;39648;53.416;6.728;2022-07-05T07:11:43;23.30;57.40
52523;DHT22;39648;53.416;6.728;2022-07-05T07:14:09;23.30;57.50
52523;DHT22;39648;53.416;6.728;2022-07-05T07:16:36;23.30;57.50
52523;DHT22;39648;53.416;6.728;2022-07-05T07:19:02;23.30;57.40
52523;DHT22;39648;53.416;6.728;2022-07-05T07:21:28;23.30;58.10
52523;DHT22;39648;53.416;6.728;2022-07-05T07:23:53;23.30;57.30
52523;DHT22;39648;53.416;6.728;2022-07-05T07:26:19;23.30;57.50
52523;DHT22;39648;53.416;6.728;2022-07-05T07:28:45;23.30;57.50
52523;DHT22;39648;53.416;6.728;2022-07-05T07:31:11;23.30;57.60
52523;DHT22;39648;53.416;6.728;2022-07-05T07:33:37;23.30;57.50
52523;DHT22;39648;53.416;6.728;2022-07-05T07:36:02;23.30;57.60
52523;DHT22;39648;53.416;6.728;2022-07-05T07:38:28;23.30;57.30
52523;DHT22;39648;53.416;6.728;2022-07-05T07:40:54;23.30;57.40
52523;DHT22;39648;53.416;6.728;2022-07-05T07:43:19;23.30;57.70
52523;DHT22;39648;53.416;6.728;2022-07-05T07:45:45;23.30;57.70
52523;DHT22;39648;53.416;6.728;2022-07-05T07:48:11;23.30;57.70
52523;DHT22;39648;53.416;6.728;2022-07-05T07:50:37;23.30;57.80
52523;DHT22;39648;53.416;6.728;2022-07-05T07:53:02;23.30;57.70
52523;DHT22;39648;53.416;6.728;2022-07-05T07:55:28;23.30;57.80
52523;DHT22;39648;53.416;6.728;2022-07-05T07:57:54;23.30;57.70
52523;DHT22;39648;53.416;6.728;2022-07-05T08:00:20;23.30;57.80
52523;DHT22;39648;53.416;6.728;2022-07-05T08:02:46;23.30;57.70
52523;DHT22;39648;53.416;6.728;2022-07-05T08:05:12;23.30;57.50
52523;DHT22;39648;53.416;6.728;2022-07-05T08:07:37;23.30;57.60
52523;DHT22;39648;53.416;6.728;2022-07-05T08:10:04;23.30;57.30
52523;DHT22;39648;53.416;6.728;2022-07-05T08:12:29;23.30;57.20
52523;DHT22;39648;53.416;6.728;2022-07-05T08:14:55;23.30;57.20
52523;DHT22;39648;53.416;6.728;2022-07-05T08:17:21;23.30;57.30
52523;DHT22;39648;53.416;6.728;2022-07-05T08:19:47;23.30;57.20
52523;DHT22;39648;53.416;6.728;2022-07-05T08:22:31;23.30;57.50
52523;DHT22;39648;53.416;6.728;2022-07-05T08:24:57;23.30;57.50
52523;DHT22;39648;53.416;6.728;2022-07-05T08:27:23;23.30;57.40
52523;DHT22;39648;53.416;6.728;2022-07-05T08:29:49;23.30;57.50
52523;DHT22;39648;53.416;6.728;2022-07-05T08:32:15;24.10;58.00
52523;DHT22;39648;53.416;6.728;2022-07-05T08:34:41;23.30;57.60
52523;DHT22;39648;53.416;6.728;2022-07-05T08:37:07;23.30;57.60
52523;DHT22;39648;53.416;6.728;2022-07-05T08:39:32;23.30;57.40
52523;DHT22;39648;53.416;6.728;2022-07-05T08:41:58;23.30;57.50
52523;DHT22;39648;53.416;6.728;2022-07-05T08:44:24;23.30;57.50
52523;DHT22;39648;53.416;6.728;2022-07-05T08:46:52;23.40;57.60
52523;DHT22;39648;53.416;6.728;2022-07-05T08:49:20;23.40;57.50
52523;DHT22;39648;53.416;6.728;2022-07-05T08:51:46;23.30;57.20
52523;DHT22;39648;53.416;6.728;2022-07-05T08:54:13;23.30;57.10
52523;DHT22;39648;53.416;6.728;2022-07-05T08:56:42;23.30;57.30
52523;DHT22;39648;53.416;6.728;2022-07-05T08:59:08;23.40;57.40
52523;DHT22;39648;53.416;6.728;2022-07-05T09:01:34;23.30;57.40
52523;DHT22;39648;53.416;6.728;2022-07-05T09:04:01;23.30;57.40
52523;DHT22;39648;53.416;6.728;2022-07-05T09:06:28;23.30;57.10
52523;DHT22;39648;53.416;6.728;2022-07-05T09:08:58;23.30;57.30
52523;DHT22;39648;53.416;6.728;2022-07-05T09:11:27;23.30;57.40
52523;DHT22;39648;53.416;6.728;2022-07-05T09:13:54;23.30;57.30
52523;DHT22;39648;53.416;6.728;2022-07-05T09:16:21;23.30;57.20
52523;DHT22;39648;53.416;6.728;2022-07-05T09:18:48;23.30;57.20
52523;DHT22;39648;53.416;6.728;2022-07-05T09:21:18;23.30;57.20
52523;DHT22;39648;53.416;6.728;2022-07-05T09:23:45;23.30;57.20
52523;DHT22;39648;53.416;6.728;2022-07-05T09:26:10;23.30;57.20
52523;DHT22;39648;53.416;6.728;2022-07-05T09:28:36;23.30;57.20
52523;DHT22;39648;53.416;6.728;2022-07-05T09:31:02;23.30;57.10
52523;DHT22;39648;53.416;6.728;2022-07-05T09:33:28;23.30;57.10
52523;DHT22;39648;53.416;6.728;2022-07-05T09:35:54;23.40;57.20
52523;DHT22;39648;53.416;6.728;2022-07-05T09:38:23;23.40;57.20
52523;DHT22;39648;53.416;6.728;2022-07-05T09:40:50;23.30;57.70
52523;DHT22;39648;53.416;6.728;2022-07-05T09:43:17;23.40;57.20
52523;DHT22;39648;53.416;6.728;2022-07-05T09:45:50;23.40;57.20
52523;DHT22;39648;53.416;6.728;2022-07-05T09:48:16;23.40;57.20
52523;DHT22;39648;53.416;6.728;2022-07-05T09:50:42;23.40;57.20
52523;DHT22;39648;53.416;6.728;2022-07-05T09:53:09;23.40;57.20
52523;DHT22;39648;53.416;6.728;2022-07-05T09:55:37;23.40;57.20
52523;DHT22;39648;53.416;6.728;2022-07-05T09:58:03;23.40;57.20
52523;DHT22;39648;53.416;6.728;2022-07-05T10:00:29;23.40;57.30
52523;DHT22;39648;53.416;6.728;2022-07-05T10:02:55;23.40;57.20
52523;DHT22;39648;53.416;6.728;2022-07-05T10:05:29;23.40;57.30
52523;DHT22;39648;53.416;6.728;2022-07-05T10:07:56;23.10;57.20
52523;DHT22;39648;53.416;6.728;2022-07-05T10:10:23;23.40;57.30
52523;DHT22;39648;53.416;6.728;2022-07-05T10:12:50;23.40;57.20
52523;DHT22;39648;53.416;6.728;2022-07-05T10:15:18;23.40;57.20
52523;DHT22;39648;53.416;6.728;2022-07-05T10:17:45;23.40;57.20
52523;DHT22;39648;53.416;6.728;2022-07-05T10:20:15;23.40;57.20
52523;DHT22;39648;53.416;6.728;2022-07-05T10:22:42;23.40;57.20
52523;DHT22;39648;53.416;6.728;2022-07-05T10:25:08;23.40;57.20
52523;DHT22;39648;53.416;6.728;2022-07-05T10:27:34;23.40;57.20
52523;DHT22;39648;53.416;6.728;2022-07-05T10:30:01;23.40;57.20
52523;DHT22;39648;53.416;6.728;2022-07-05T10:32:28;23.40;57.20
52523;DHT22;39648;53.416;6.728;2022-07-05T10:34:53;23.40;57.20
52523;DHT22;39648;53.416;6.728;2022-07-05T10:37:21;23.40;57.10
52523;DHT22;39648;53.416;6.728;2022-07-05T10:39:47;23.40;57.10
52523;DHT22;39648;53.416;6.728;2022-07-05T10:42:13;23.40;57.10
52523;DHT22;39648;53.416;6.728;2022-07-05T10:44:39;23.40;57.10
52523;DHT22;39648;53.416;6.728;2022-07-05T10:47:08;23.40;57.10
52523;DHT22;39648;53.416;6.728;2022-07-05T10:49:35;23.40;57.10
52523;DHT22;39648;53.416;6.728;2022-07-05T10:52:01;23.40;57.10
52523;DHT22;39648;53.416;6.728;2022-07-05T10:54:26;23.40;57.00
52523;DHT22;39648;53.416;6.728;2022-07-05T10:57:19;23.40;57.00
52523;DHT22;39648;53.416;6.728;2022-07-05T11:00:07;23.40;57.00
52523;DHT22;39648;53.416;6.728;2022-07-05T11:02:32;23.40;57.00
52523;DHT22;39648;53.416;6.728;2022-07-05T11:04:58;23.40;56.90
52523;DHT22;39648;53.416;6.728;2022-07-05T11:10:08;23.40;56.90
52523;DHT22;39648;53.416;6.728;2022-07-05T11:12:37;23.40;56.90
52523;DHT22;39648;53.416;6.728;2022-07-05T11:15:03;23.40;56.90
52523;DHT22;39648;53.416;6.728;2022-07-05T11:17:29;23.40;56.90
52523;DHT22;39648;53.416;6.728;2022-07-05T11:20:03;23.40;56.80
52523;DHT22;39648;53.416;6.728;2022-07-05T11:22:30;23.40;56.80
52523;DHT22;39648;53.416;6.728;2022-07-05T11:24:56;23.40;56.80
52523;DHT22;39648;53.416;6.728;2022-07-05T11:27:22;23.40;56.80
52523;DHT22;39648;53.416;6.728;2022-07-05T11:29:48;23.40;56.80
52523;DHT22;39648;53.416;6.728;2022-07-05T11:32:16;23.40;56.80
52523;DHT22;39648;53.416;6.728;2022-07-05T11:34:43;23.40;56.80
52523;DHT22;39648;53.416;6.728;2022-07-05T11:39:40;23.40;56.80
52523;DHT22;39648;53.416;6.728;2022-07-05T11:42:07;23.40;56.80
52523;DHT22;39648;53.416;6.728;2022-07-05T11:44:33;23.40;56.80
52523;DHT22;39648;53.416;6.728;2022-07-05T11:46:59;23.40;56.80
52523;DHT22;39648;53.416;6.728;2022-07-05T11:49:25;23.40;56.80
52523;DHT22;39648;53.416;6.728;2022-07-05T11:51:57;23.40;56.90
52523;DHT22;39648;53.416;6.728;2022-07-05T11:54:24;23.40;56.80
52523;DHT22;39648;53.416;6.728;2022-07-05T11:56:50;23.40;56.90
52523;DHT22;39648;53.416;6.728;2022-07-05T11:59:16;23.40;56.90
52523;DHT22;39648;53.416;6.728;2022-07-05T12:01:44;23.40;56.90
52523;DHT22;39648;53.416;6.728;2022-07-05T12:04:09;23.40;56.90
52523;DHT22;39648;53.416;6.728;2022-07-05T12:06:41;23.40;57.00
52523;DHT22;39648;53.416;6.728;2022-07-05T12:09:07;23.40;57.00
52523;DHT22;39648;53.416;6.728;2022-07-05T12:11:33;23.40;57.00
52523;DHT22;39648;53.416;6.728;2022-07-05T12:14:21;23.40;57.00
52523;DHT22;39648;53.416;6.728;2022-07-05T12:16:47;23.40;57.00
52523;DHT22;39648;53.416;6.728;2022-07-05T12:19:23;23.40;57.00
52523;DHT22;39648;53.416;6.728;2022-07-05T12:21:52;23.40;57.00
52523;DHT22;39648;53.416;6.728;2022-07-05T12:24:18;23.40;57.10
52523;DHT22;39648;53.416;6.728;2022-07-05T12:26:44;23.40;57.00
52523;DHT22;39648;53.416;6.728;2022-07-05T12:29:10;23.40;57.00
52523;DHT22;39648;53.416;6.728;2022-07-05T12:31:36;22.60;56.60
52523;DHT22;39648;53.416;6.728;2022-07-05T12:34:15;23.40;56.80
52523;DHT22;39648;53.416;6.728;2022-07-05T12:36:41;23.40;56.90
52523;DHT22;39648;53.416;6.728;2022-07-05T12:39:07;23.40;56.90
52523;DHT22;39648;53.416;6.728;2022-07-05T12:41:33;23.40;56.80
52523;DHT22;39648;53.416;6.728;2022-07-05T12:43:59;23.40;56.80
52523;DHT22;39648;53.416;6.728;2022-07-05T12:46:35;23.40;56.90
52523;DHT22;39648;53.416;6.728;2022-07-05T12:49:02;22.70;56.60
52523;DHT22;39648;53.416;6.728;2022-07-05T12:51:32;23.40;56.80
52523;DHT22;39648;53.416;6.728;2022-07-05T12:53:58;23.40;56.90
52523;DHT22;39648;53.416;6.728;2022-07-05T12:56:48;23.40;56.90
52523;DHT22;39648;53.416;6.728;2022-07-05T12:59:32;23.40;56.80
52523;DHT22;39648;53.416;6.728;2022-07-05T13:01:58;23.40;56.90
52523;DHT22;39648;53.416;6.728;2022-07-05T13:04:24;23.40;56.80
52523;DHT22;39648;53.416;6.728;2022-07-05T13:06:51;23.40;56.70
52523;DHT22;39648;53.416;6.728;2022-07-05T13:14:32;23.40;56.60
52523;DHT22;39648;53.416;6.728;2022-07-05T13:16:58;23.40;56.50
52523;DHT22;39648;53.416;6.728;2022-07-05T13:19:23;23.50;56.70
52523;DHT22;39648;53.416;6.728;2022-07-05T13:21:49;23.40;56.50
52523;DHT22;39648;53.416;6.728;2022-07-05T13:24:14;23.40;56.50
52523;DHT22;39648;53.416;6.728;2022-07-05T13:26:40;23.40;56.50
52523;DHT22;39648;53.416;6.728;2022-07-05T13:29:06;23.40;56.40
52523;DHT22;39648;53.416;6.728;2022-07-05T13:31:32;23.40;56.40
52523;DHT22;39648;53.416;6.728;2022-07-05T13:33:58;23.50;56.50
52523;DHT22;39648;53.416;6.728;2022-07-05T13:36:24;23.50;56.40
52523;DHT22;39648;53.416;6.728;2022-07-05T13:38:50;23.50;56.50
52523;DHT22;39648;53.416;6.728;2022-07-05T13:41:16;23.40;56.40
52523;DHT22;39648;53.416;6.728;2022-07-05T13:43:42;23.40;56.30
52523;DHT22;39648;53.416;6.728;2022-07-05T13:46:10;23.50;56.40
52523;DHT22;39648;53.416;6.728;2022-07-05T13:48:36;23.40;56.30
52523;DHT22;39648;53.416;6.728;2022-07-05T13:51:02;23.50;56.40
52523;DHT22;39648;53.416;6.728;2022-07-05T13:53:28;23.50;56.40
52523;DHT22;39648;53.416;6.728;2022-07-05T13:55:54;23.50;56.40
52523;DHT22;39648;53.416;6.728;2022-07-05T13:58:20;23.50;56.40
52523;DHT22;39648;53.416;6.728;2022-07-05T14:00:46;23.50;56.40
52523;DHT22;39648;53.416;6.728;2022-07-05T14:03:12;23.50;56.40
52523;DHT22;39648;53.416;6.728;2022-07-05T14:05:37;23.50;56.90
52523;DHT22;39648;53.416;6.728;2022-07-05T14:08:03;23.50;56.40
52523;DHT22;39648;53.416;6.728;2022-07-05T14:10:29;23.50;56.40
52523;DHT22;39648;53.416;6.728;2022-07-05T14:12:55;23.50;56.40
52523;DHT22;39648;53.416;6.728;2022-07-05T14:15:20;23.50;56.40
52523;DHT22;39648;53.416;6.728;2022-07-05T14:17:46;23.50;56.40
52523;DHT22;39648;53.416;6.728;2022-07-05T14:20:12;23.50;56.30
52523;DHT22;39648;53.416;6.728;2022-07-05T14:22:39;23.50;56.20
52523;DHT22;39648;53.416;6.728;2022-07-05T14:25:04;23.50;56.20
52523;DHT22;39648;53.416;6.728;2022-07-05T14:27:31;23.50;56.20
52523;DHT22;39648;53.416;6.728;2022-07-05T14:29:56;23.50;56.20
52523;DHT22;39648;53.416;6.728;2022-07-05T14:32:22;23.50;56.20
52523;DHT22;39648;53.416;6.728;2022-07-05T14:34:48;23.50;56.10
52523;DHT22;39648;53.416;6.728;2022-07-05T14:37:14;23.50;56.00
52523;DHT22;39648;53.416;6.728;2022-07-05T14:39:40;23.50;56.00
52523;DHT22;39648;53.416;6.728;2022-07-05T14:42:05;23.50;56.10
52523;DHT22;39648;53.416;6.728;2022-07-05T14:44:31;23.50;56.00
52523;DHT22;39648;53.416;6.728;2022-07-05T14:46:59;23.50;56.00
52523;DHT22;39648;53.416;6.728;2022-07-05T14:49:24;23.50;56.00
52523;DHT22;39648;53.416;6.728;2022-07-05T14:51:50;23.50;55.80
52523;DHT22;39648;53.416;6.728;2022-07-05T14:54:16;23.50;55.90
52523;DHT22;39648;53.416;6.728;2022-07-05T14:56:42;23.50;55.80
52523;DHT22;39648;53.416;6.728;2022-07-05T14:59:07;23.50;55.70
52523;DHT22;39648;53.416;6.728;2022-07-05T15:01:33;23.50;55.70
52523;DHT22;39648;53.416;6.728;2022-07-05T15:03:58;23.60;55.80
52523;DHT22;39648;53.416;6.728;2022-07-05T15:06:24;23.60;55.80
52523;DHT22;39648;53.416;6.728;2022-07-05T15:08:50;23.60;55.70
52523;DHT22;39648;53.416;6.728;2022-07-05T15:11:15;23.60;55.80
52523;DHT22;39648;53.416;6.728;2022-07-05T15:13:41;23.60;55.70
52523;DHT22;39648;53.416;6.728;2022-07-05T15:16:07;23.60;55.80
52523;DHT22;39648;53.416;6.728;2022-07-05T15:18:32;23.60;55.80
52523;DHT22;39648;53.416;6.728;2022-07-05T15:20:58;23.60;55.80
52523;DHT22;39648;53.416;6.728;2022-07-05T15:23:24;23.60;55.70
52523;DHT22;39648;53.416;6.728;2022-07-05T15:25:53;23.60;55.60
52523;DHT22;39648;53.416;6.728;2022-07-05T15:28:20;23.60;55.70
52523;DHT22;39648;53.416;6.728;2022-07-05T15:30:46;23.60;55.80
52523;DHT22;39648;53.416;6.728;2022-07-05T15:33:12;23.60;55.70
52523;DHT22;39648;53.416;6.728;2022-07-05T15:35:37;23.60;55.70